sensor_id;sensor_type;location;lat;lon;timestamp;temperature;humidity
50556;DHT22;36508;52.512;13.450;2023-03-01T00:02:23;1.40;99.90
50556;DHT22;36508;52.512;13.450;2023-03-01T00:04:49;1.30;99.90
50556;DHT22;36508;52.512;13.450;2023-03-01T00:07:15;1.40;99.90
50556;DHT22;36508;52.512;13.450;2023-03-01T00:09:41;1.30;99.90
50556;DHT22;36508;52.512;13.450;2023-03-01T00:12:07;1.30;99.90
50556;DHT22;36508;52.512;13.450;2023-03-01T00:14:35;1.40;99.90
50556;DHT22;36508;52.512;13.450;2023-03-01T00:17:04;1.30;99.90
50556;DHT22;36508;52.512;13.450;2023-03-01T00:19:31;1.20;99.90
50556;DHT22;36508;52.512;13.450;2023-03-01T00:22:01;1.20;99.90
50556;DHT22;36508;52.512;13.450;2023-03-01T00:24:27;1.20;99.90
50556;DHT22;36508;52.512;13.450;2023-03-01T00:26:54;1.20;99.90
50556;DHT22;36508;52.512;13.450;2023-03-01T00:29:30;1.10;99.90
50556;DHT22;36508;52.512;13.450;2023-03-01T00:31:59;1.20;99.90
50556;DHT22;36508;52.512;13.450;2023-03-01T00:34:28;1.20;99.90
50556;DHT22;36508;52.512;13.450;2023-03-01T00:36:54;1.20;99.90
50556;DHT22;36508;52.512;13.450;2023-03-01T00:39:20;1.20;99.90
50556;DHT22;36508;52.512;13.450;2023-03-01T00:41:46;1.10;99.90
50556;DHT22;36508;52.512;13.450;2023-03-01T00:44:12;1.10;99.90
50556;DHT22;36508;52.512;13.450;2023-03-01T00:46:41;1.00;99.90
50556;DHT22;36508;52.512;13.450;2023-03-01T00:49:07;1.10;99.90
50556;DHT22;36508;52.512;13.450;2023-03-01T00:51:33;1.00;99.90
50556;DHT22;36508;52.512;13.450;2023-03-01T00:54:01;1.00;99.90
50556;DHT22;36508;52.512;13.450;2023-03-01T00:56:27;1.10;99.90
50556;DHT22;36508;52.512;13.450;2023-03-01T00:58:56;1.10;99.90
50556;DHT22;36508;52.512;13.450;2023-03-01T01:01:25;1.10;99.90
50556;DHT22;36508;52.512;13.450;2023-03-01T01:03:58;1.10;99.90
50556;DHT22;36508;52.512;13.450;2023-03-01T01:06:26;1.10;99.90
50556;DHT22;36508;52.512;13.450;2023-03-01T01:08:54;1.20;99.90
50556;DHT22;36508;52.512;13.450;2023-03-01T01:11:22;1.10;99.90
50556;DHT22;36508;52.512;13.450;2023-03-01T01:13:55;0.90;99.90
50556;DHT22;36508;52.512;13.450;2023-03-01T01:16:28;1.00;99.90
50556;DHT22;36508;52.512;13.450;2023-03-01T01:18:55;1.00;99.90
50556;DHT22;36508;52.512;13.450;2023-03-01T01:21:29;1.00;99.90
50556;DHT22;36508;52.512;13.450;2023-03-01T01:23:55;0.90;99.90
50556;DHT22;36508;52.512;13.450;2023-03-01T01:26:24;0.80;99.90
50556;DHT22;36508;52.512;13.450;2023-03-01T01:28:50;0.80;99.90
50556;DHT22;36508;52.512;13.450;2023-03-01T01:31:17;0.80;99.90
50556;DHT22;36508;52.512;13.450;2023-03-01T01:33:49;0.80;99.90
50556;DHT22;36508;52.512;13.450;2023-03-01T01:36:19;0.80;99.90
50556;DHT22;36508;52.512;13.450;2023-03-01T01:38:48;0.80;99.90
50556;DHT22;36508;52.512;13.450;2023-03-01T01:41:26;0.80;99.90
50556;DHT22;36508;52.512;13.450;2023-03-01T01:44:29;0.80;99.90
50556;DHT22;36508;52.512;13.450;2023-03-01T01:47:07;0.80;99.90
50556;DHT22;36508;52.512;13.450;2023-03-01T01:49:45;0.70;99.90
50556;DHT22;36508;52.512;13.450;2023-03-01T01:52:31;0.70;99.90
50556;DHT22;36508;52.512;13.450;2023-03-01T01:55:09;0.70;99.90
50556;DHT22;36508;52.512;13.450;2023-03-01T01:57:42;0.70;99.90
50556;DHT22;36508;52.512;13.450;2023-03-01T02:00:12;0.60;99.90
50556;DHT22;36508;52.512;13.450;2023-03-01T02:02:39;0.60;99.90
50556;DHT22;36508;52.512;13.450;2023-03-01T02:07:56;0.60;99.90
50556;DHT22;36508;52.512;13.450;2023-03-01T02:10:25;0.50;99.90
50556;DHT22;36508;52.512;13.450;2023-03-01T02:12:52;0.70;99.90
50556;DHT22;36508;52.512;13.450;2023-03-01T02:15:18;0.60;99.90
50556;DHT22;36508;52.512;13.450;2023-03-01T02:17:43;0.60;99.90
50556;DHT22;36508;52.512;13.450;2023-03-01T02:22:57;0.60;99.90
50556;DHT22;36508;52.512;13.450;2023-03-01T02:25:56;0.50;99.90
50556;DHT22;36508;52.512;13.450;2023-03-01T02:28:32;0.50;99.90
50556;DHT22;36508;52.512;13.450;2023-03-01T02:31:05;0.50;99.90
50556;DHT22;36508;52.512;13.450;2023-03-01T02:33:49;0.60;99.90
50556;DHT22;36508;52.512;13.450;2023-03-01T02:36:23;0.60;99.90
50556;DHT22;36508;52.512;13.450;2023-03-01T02:38:53;0.60;99.90
50556;DHT22;36508;52.512;13.450;2023-03-01T02:41:22;0.50;99.90
50556;DHT22;36508;52.512;13.450;2023-03-01T02:43:48;0.50;99.90
50556;DHT22;36508;52.512;13.450;2023-03-01T02:46:20;0.50;99.90
50556;DHT22;36508;52.512;13.450;2023-03-01T02:48:54;0.50;99.90
50556;DHT22;36508;52.512;13.450;2023-03-01T02:56:59;0.50;99.90
50556;DHT22;36508;52.512;13.450;2023-03-01T02:59:30;0.50;99.90
50556;DHT22;36508;52.512;13.450;2023-03-01T03:01:57;0.50;99.90
50556;DHT22;36508;52.512;13.450;2023-03-01T03:04:34;0.50;99.90
50556;DHT22;36508;52.512;13.450;2023-03-01T03:07:03;0.40;99.90
50556;DHT22;36508;52.512;13.450;2023-03-01T03:09:32;0.30;99.90
50556;DHT22;36508;52.512;13.450;2023-03-01T03:11:58;0.30;99.90
50556;DHT22;36508;52.512;13.450;2023-03-01T03:14:23;0.40;99.90
50556;DHT22;36508;52.512;13.450;2023-03-01T03:16:50;0.40;99.90
50556;DHT22;36508;52.512;13.450;2023-03-01T03:19:17;0.50;99.90
50556;DHT22;36508;52.512;13.450;2023-03-01T03:21:46;0.40;99.90
50556;DHT22;36508;52.512;13.450;2023-03-01T03:24:12;0.30;99.90
50556;DHT22;36508;52.512;13.450;2023-03-01T03:26:38;0.30;99.90
50556;DHT22;36508;52.512;13.450;2023-03-01T03:29:04;0.40;99.90
50556;DHT22;36508;52.512;13.450;2023-03-01T03:31:36;0.30;99.90
50556;DHT22;36508;52.512;13.450;2023-03-01T03:34:02;0.20;99.90
50556;DHT22;36508;52.512;13.450;2023-03-01T03:36:28;0.20;99.90
50556;DHT22;36508;52.512;13.450;2023-03-01T03:38:54;0.20;99.90
50556;DHT22;36508;52.512;13.450;2023-03-01T03:41:19;0.30;99.90
50556;DHT22;36508;52.512;13.450;2023-03-01T03:43:45;0.30;99.90
50556;DHT22;36508;52.512;13.450;2023-03-01T03:46:12;0.20;99.90
50556;DHT22;36508;52.512;13.450;2023-03-01T03:48:43;0.10;99.90
50556;DHT22;36508;52.512;13.450;2023-03-01T03:51:16;0.10;99.90
50556;DHT22;36508;52.512;13.450;2023-03-01T03:53:45;0.10;99.90
50556;DHT22;36508;52.512;13.450;2023-03-01T03:56:12;0.10;99.90
50556;DHT22;36508;52.512;13.450;2023-03-01T03:58:38;0.00;99.90
50556;DHT22;36508;52.512;13.450;2023-03-01T04:01:04;0.10;99.90
50556;DHT22;36508;52.512;13.450;2023-03-01T04:03:31;0.10;99.90
50556;DHT22;36508;52.512;13.450;2023-03-01T04:06:01;-0.10;99.90
50556;DHT22;36508;52.512;13.450;2023-03-01T04:08:28;0.00;99.90
50556;DHT22;36508;52.512;13.450;2023-03-01T04:11:01;0.00;99.90
50556;DHT22;36508;52.512;13.450;2023-03-01T04:13:47;-0.10;99.90
50556;DHT22;36508;52.512;13.450;2023-03-01T04:16:13;0.10;99.90
50556;DHT22;36508;52.512;13.450;2023-03-01T04:18:39;0.10;99.90
50556;DHT22;36508;52.512;13.450;2023-03-01T04:21:05;0.10;99.90
50556;DHT22;36508;52.512;13.450;2023-03-01T04:23:34;0.10;99.90
50556;DHT22;36508;52.512;13.450;2023-03-01T04:26:00;0.00;99.90
50556;DHT22;36508;52.512;13.450;2023-03-01T04:28:40;0.00;99.90
50556;DHT22;36508;52.512;13.450;2023-03-01T04:31:14;0.10;99.90
50556;DHT22;36508;52.512;13.450;2023-03-01T04:33:43;0.10;99.90
50556;DHT22;36508;52.512;13.450;2023-03-01T04:36:10;0.10;99.90
50556;DHT22;36508;52.512;13.450;2023-03-01T04:38:40;0.10;99.90
50556;DHT22;36508;52.512;13.450;2023-03-01T04:41:10;0.00;99.90
50556;DHT22;36508;52.512;13.450;2023-03-01T04:43:37;-0.10;99.90
50556;DHT22;36508;52.512;13.450;2023-03-01T04:46:08;-0.10;99.90
50556;DHT22;36508;52.512;13.450;2023-03-01T04:48:38;-0.10;99.90
50556;DHT22;36508;52.512;13.450;2023-03-01T04:51:11;0.00;99.90
50556;DHT22;36508;52.512;13.450;2023-03-01T04:53:41;-0.10;99.90
50556;DHT22;36508;52.512;13.450;2023-03-01T04:56:08;-0.10;99.90
50556;DHT22;36508;52.512;13.450;2023-03-01T04:58:34;-0.10;99.90
50556;DHT22;36508;52.512;13.450;2023-03-01T05:01:00;-0.10;99.90
50556;DHT22;36508;52.512;13.450;2023-03-01T05:03:26;-0.10;99.90
50556;DHT22;36508;52.512;13.450;2023-03-01T05:05:53;-0.10;99.90
50556;DHT22;36508;52.512;13.450;2023-03-01T05:08:19;-0.20;99.90
50556;DHT22;36508;52.512;13.450;2023-03-01T05:10:49;-0.10;99.90
50556;DHT22;36508;52.512;13.450;2023-03-01T05:13:15;-0.20;99.90
50556;DHT22;36508;52.512;13.450;2023-03-01T05:16:03;-0.30;99.90
50556;DHT22;36508;52.512;13.450;2023-03-01T05:18:31;-0.20;99.90
50556;DHT22;36508;52.512;13.450;2023-03-01T05:21:09;-0.20;99.90
50556;DHT22;36508;52.512;13.450;2023-03-01T05:23:38;-0.30;99.90
50556;DHT22;36508;52.512;13.450;2023-03-01T05:26:08;-0.40;99.90
50556;DHT22;36508;52.512;13.450;2023-03-01T05:28:34;-0.40;99.90
50556;DHT22;36508;52.512;13.450;2023-03-01T05:31:04;-0.30;99.90
50556;DHT22;36508;52.512;13.450;2023-03-01T05:33:39;-0.20;99.90
50556;DHT22;36508;52.512;13.450;2023-03-01T05:36:14;-0.40;99.90
50556;DHT22;36508;52.512;13.450;2023-03-01T05:38:40;-0.40;99.90
50556;DHT22;36508;52.512;13.450;2023-03-01T05:41:13;-0.30;99.90
50556;DHT22;36508;52.512;13.450;2023-03-01T05:43:42;-0.30;99.90
50556;DHT22;36508;52.512;13.450;2023-03-01T05:46:13;-0.30;99.90
50556;DHT22;36508;52.512;13.450;2023-03-01T05:48:43;-0.30;99.90
50556;DHT22;36508;52.512;13.450;2023-03-01T05:51:09;-0.40;99.90
50556;DHT22;36508;52.512;13.450;2023-03-01T05:53:35;-0.40;99.90
50556;DHT22;36508;52.512;13.450;2023-03-01T05:56:04;-0.40;99.90
50556;DHT22;36508;52.512;13.450;2023-03-01T05:58:36;-0.40;99.90
50556;DHT22;36508;52.512;13.450;2023-03-01T06:01:04;-0.30;99.90
50556;DHT22;36508;52.512;13.450;2023-03-01T06:03:30;-0.40;99.90
50556;DHT22;36508;52.512;13.450;2023-03-01T06:05:57;-0.40;99.90
50556;DHT22;36508;52.512;13.450;2023-03-01T06:08:29;-0.30;99.90
50556;DHT22;36508;52.512;13.450;2023-03-01T06:10:57;-0.30;99.90
50556;DHT22;36508;52.512;13.450;2023-03-01T06:13:26;-0.30;99.90
50556;DHT22;36508;52.512;13.450;2023-03-01T06:15:52;-0.30;99.90
50556;DHT22;36508;52.512;13.450;2023-03-01T06:18:22;-0.30;99.90
50556;DHT22;36508;52.512;13.450;2023-03-01T06:20:55;-0.30;99.90
50556;DHT22;36508;52.512;13.450;2023-03-01T06:23:23;-0.20;99.90
50556;DHT22;36508;52.512;13.450;2023-03-01T06:25:55;-0.20;99.90
50556;DHT22;36508;52.512;13.450;2023-03-01T06:28:24;-0.10;99.90
50556;DHT22;36508;52.512;13.450;2023-03-01T06:30:50;-0.10;99.90
50556;DHT22;36508;52.512;13.450;2023-03-01T06:33:20;0.00;99.90
50556;DHT22;36508;52.512;13.450;2023-03-01T06:35:49;0.00;99.90
50556;DHT22;36508;52.512;13.450;2023-03-01T06:38:15;0.10;99.90
50556;DHT22;36508;52.512;13.450;2023-03-01T06:40:42;0.20;99.90
50556;DHT22;36508;52.512;13.450;2023-03-01T06:43:08;0.30;99.90
50556;DHT22;36508;52.512;13.450;2023-03-01T06:45:35;0.30;99.90
50556;DHT22;36508;52.512;13.450;2023-03-01T06:48:08;0.30;99.90
50556;DHT22;36508;52.512;13.450;2023-03-01T06:50:35;0.20;99.90
50556;DHT22;36508;52.512;13.450;2023-03-01T06:53:02;0.30;99.90
50556;DHT22;36508;52.512;13.450;2023-03-01T06:55:33;0.40;99.90
50556;DHT22;36508;52.512;13.450;2023-03-01T06:58:00;0.30;99.90
50556;DHT22;36508;52.512;13.450;2023-03-01T07:00:29;0.40;99.90
50556;DHT22;36508;52.512;13.450;2023-03-01T07:03:00;0.50;99.90
50556;DHT22;36508;52.512;13.450;2023-03-01T07:05:27;0.40;99.90
50556;DHT22;36508;52.512;13.450;2023-03-01T07:07:53;0.50;99.90
50556;DHT22;36508;52.512;13.450;2023-03-01T07:10:22;0.60;99.90
50556;DHT22;36508;52.512;13.450;2023-03-01T07:12:48;0.60;99.90
50556;DHT22;36508;52.512;13.450;2023-03-01T07:15:13;0.60;99.90
50556;DHT22;36508;52.512;13.450;2023-03-01T07:17:40;0.80;99.90
50556;DHT22;36508;52.512;13.450;2023-03-01T07:20:09;0.80;99.90
50556;DHT22;36508;52.512;13.450;2023-03-01T07:22:41;0.80;99.90
50556;DHT22;36508;52.512;13.450;2023-03-01T07:25:11;1.00;99.90
50556;DHT22;36508;52.512;13.450;2023-03-01T07:27:37;1.10;99.90
50556;DHT22;36508;52.512;13.450;2023-03-01T07:30:03;1.10;99.90
50556;DHT22;36508;52.512;13.450;2023-03-01T07:32:32;1.10;99.90
50556;DHT22;36508;52.512;13.450;2023-03-01T07:34:58;1.10;99.90
50556;DHT22;36508;52.512;13.450;2023-03-01T07:37:27;1.20;99.90
50556;DHT22;36508;52.512;13.450;2023-03-01T07:39:55;1.30;99.90
50556;DHT22;36508;52.512;13.450;2023-03-01T07:42:21;1.30;99.90
50556;DHT22;36508;52.512;13.450;2023-03-01T07:44:50;1.30;99.90
50556;DHT22;36508;52.512;13.450;2023-03-01T07:47:18;1.30;99.90
50556;DHT22;36508;52.512;13.450;2023-03-01T07:49:50;1.40;99.90
50556;DHT22;36508;52.512;13.450;2023-03-01T07:52:31;1.50;99.90
50556;DHT22;36508;52.512;13.450;2023-03-01T07:55:00;1.50;99.90
50556;DHT22;36508;52.512;13.450;2023-03-01T07:57:26;1.70;99.90
50556;DHT22;36508;52.512;13.450;2023-03-01T07:59:55;2.00;99.90
50556;DHT22;36508;52.512;13.450;2023-03-01T08:02:20;2.00;99.90
50556;DHT22;36508;52.512;13.450;2023-03-01T08:04:52;2.00;99.90
50556;DHT22;36508;52.512;13.450;2023-03-01T08:07:18;1.90;99.90
50556;DHT22;36508;52.512;13.450;2023-03-01T08:09:44;1.90;99.90
50556;DHT22;36508;52.512;13.450;2023-03-01T08:12:10;1.90;99.90
50556;DHT22;36508;52.512;13.450;2023-03-01T08:14:36;1.90;99.90
50556;DHT22;36508;52.512;13.450;2023-03-01T08:17:05;2.00;99.90
50556;DHT22;36508;52.512;13.450;2023-03-01T08:19:32;2.20;99.90
50556;DHT22;36508;52.512;13.450;2023-03-01T08:21:59;2.30;99.90
50556;DHT22;36508;52.512;13.450;2023-03-01T08:24:28;2.40;99.90
50556;DHT22;36508;52.512;13.450;2023-03-01T08:26:55;2.50;99.90
50556;DHT22;36508;52.512;13.450;2023-03-01T08:29:25;2.60;99.90
50556;DHT22;36508;52.512;13.450;2023-03-01T08:31:51;2.50;99.90
50556;DHT22;36508;52.512;13.450;2023-03-01T08:34:20;2.50;99.90
50556;DHT22;36508;52.512;13.450;2023-03-01T08:36:46;2.60;99.90
50556;DHT22;36508;52.512;13.450;2023-03-01T08:39:17;2.70;99.90
50556;DHT22;36508;52.512;13.450;2023-03-01T08:41:43;2.60;99.90
50556;DHT22;36508;52.512;13.450;2023-03-01T08:44:14;2.70;99.90
50556;DHT22;36508;52.512;13.450;2023-03-01T08:46:43;2.70;99.90
50556;DHT22;36508;52.512;13.450;2023-03-01T08:49:16;2.70;99.90
50556;DHT22;36508;52.512;13.450;2023-03-01T08:51:42;2.80;99.90
50556;DHT22;36508;52.512;13.450;2023-03-01T08:54:27;3.00;99.90
50556;DHT22;36508;52.512;13.450;2023-03-01T08:57:02;3.10;99.90
50556;DHT22;36508;52.512;13.450;2023-03-01T08:59:31;3.30;99.90
50556;DHT22;36508;52.512;13.450;2023-03-01T09:02:04;3.30;99.90
50556;DHT22;36508;52.512;13.450;2023-03-01T09:04:29;3.30;99.90
50556;DHT22;36508;52.512;13.450;2023-03-01T09:06:55;3.40;99.90
50556;DHT22;36508;52.512;13.450;2023-03-01T09:09:21;3.50;99.90
50556;DHT22;36508;52.512;13.450;2023-03-01T09:11:47;3.50;99.90
50556;DHT22;36508;52.512;13.450;2023-03-01T09:14:16;3.70;99.90
50556;DHT22;36508;52.512;13.450;2023-03-01T09:16:42;3.70;99.90
50556;DHT22;36508;52.512;13.450;2023-03-01T09:19:15;3.70;99.90
50556;DHT22;36508;52.512;13.450;2023-03-01T09:21:44;3.80;99.90
50556;DHT22;36508;52.512;13.450;2023-03-01T09:24:23;3.80;99.90
50556;DHT22;36508;52.512;13.450;2023-03-01T09:26:50;3.90;99.90
50556;DHT22;36508;52.512;13.450;2023-03-01T09:29:18;4.00;99.90
50556;DHT22;36508;52.512;13.450;2023-03-01T09:31:44;4.10;99.90
50556;DHT22;36508;52.512;13.450;2023-03-01T09:34:10;4.30;99.90
50556;DHT22;36508;52.512;13.450;2023-03-01T09:36:37;4.20;99.90
50556;DHT22;36508;52.512;13.450;2023-03-01T09:39:03;4.40;99.90
50556;DHT22;36508;52.512;13.450;2023-03-01T09:41:57;4.60;99.90
50556;DHT22;36508;52.512;13.450;2023-03-01T09:44:37;4.80;99.90
50556;DHT22;36508;52.512;13.450;2023-03-01T09:47:05;4.80;99.90
50556;DHT22;36508;52.512;13.450;2023-03-01T09:49:33;4.90;99.90
50556;DHT22;36508;52.512;13.450;2023-03-01T09:52:23;5.00;99.90
50556;DHT22;36508;52.512;13.450;2023-03-01T09:54:54;4.90;99.90
50556;DHT22;36508;52.512;13.450;2023-03-01T09:57:53;5.00;99.90
50556;DHT22;36508;52.512;13.450;2023-03-01T10:00:43;5.10;99.90
50556;DHT22;36508;52.512;13.450;2023-03-01T10:03:17;5.20;99.90
50556;DHT22;36508;52.512;13.450;2023-03-01T10:05:57;5.40;99.90
50556;DHT22;36508;52.512;13.450;2023-03-01T10:11:18;5.60;99.90
50556;DHT22;36508;52.512;13.450;2023-03-01T10:16:34;5.80;99.90
50556;DHT22;36508;52.512;13.450;2023-03-01T10:19:05;5.90;99.90
50556;DHT22;36508;52.512;13.450;2023-03-01T10:21:37;6.00;99.90
50556;DHT22;36508;52.512;13.450;2023-03-01T10:24:15;6.10;99.90
50556;DHT22;36508;52.512;13.450;2023-03-01T10:26:53;6.20;99.90
50556;DHT22;36508;52.512;13.450;2023-03-01T10:29:27;6.40;99.90
50556;DHT22;36508;52.512;13.450;2023-03-01T10:31:55;6.40;99.90
50556;DHT22;36508;52.512;13.450;2023-03-01T10:34:33;6.60;99.90
50556;DHT22;36508;52.512;13.450;2023-03-01T10:37:20;7.70;99.90
50556;DHT22;36508;52.512;13.450;2023-03-01T10:40:10;11.60;99.90
50556;DHT22;36508;52.512;13.450;2023-03-01T10:42:47;15.40;95.20
50556;DHT22;36508;52.512;13.450;2023-03-01T10:50:50;21.30;58.50
50556;DHT22;36508;52.512;13.450;2023-03-01T10:53:41;22.40;54.00
50556;DHT22;36508;52.512;13.450;2023-03-01T10:56:13;22.80;51.50
50556;DHT22;36508;52.512;13.450;2023-03-01T10:58:56;23.20;49.00
50556;DHT22;36508;52.512;13.450;2023-03-01T11:06:33;21.80;44.00
50556;DHT22;36508;52.512;13.450;2023-03-01T11:09:19;22.30;42.80
50556;DHT22;36508;52.512;13.450;2023-03-01T11:21:44;25.50;38.00
50556;DHT22;36508;52.512;13.450;2023-03-01T11:24:14;24.20;36.20
50556;DHT22;36508;52.512;13.450;2023-03-01T11:26:45;23.50;37.40
50556;DHT22;36508;52.512;13.450;2023-03-01T11:29:32;23.60;37.70
50556;DHT22;36508;52.512;13.450;2023-03-01T11:32:03;24.30;36.00
50556;DHT22;36508;52.512;13.450;2023-03-01T11:34:47;25.10;34.60
50556;DHT22;36508;52.512;13.450;2023-03-01T11:40:37;25.60;33.80
50556;DHT22;36508;52.512;13.450;2023-03-01T11:43:20;25.10;34.50
50556;DHT22;36508;52.512;13.450;2023-03-01T11:56:51;25.30;34.10
50556;DHT22;36508;52.512;13.450;2023-03-01T11:59:44;24.20;32.10
50556;DHT22;36508;52.512;13.450;2023-03-01T12:02:53;23.30;32.70
50556;DHT22;36508;52.512;13.450;2023-03-01T12:24:47;25.40;33.70
50556;DHT22;36508;52.512;13.450;2023-03-01T12:33:02;24.70;32.30
50556;DHT22;36508;52.512;13.450;2023-03-01T12:48:43;25.20;31.60
50556;DHT22;36508;52.512;13.450;2023-03-01T12:51:15;24.60;29.70
50556;DHT22;36508;52.512;13.450;2023-03-01T12:53:48;22.90;30.50
50556;DHT22;36508;52.512;13.450;2023-03-01T12:56:27;23.00;30.40
50556;DHT22;36508;52.512;13.450;2023-03-01T12:59:47;23.30;30.80
50556;DHT22;36508;52.512;13.450;2023-03-01T13:05:24;22.70;31.30
50556;DHT22;36508;52.512;13.450;2023-03-01T13:13:02;20.60;30.40
50556;DHT22;36508;52.512;13.450;2023-03-01T13:15:33;20.60;32.10
50556;DHT22;36508;52.512;13.450;2023-03-01T13:30:58;22.70;32.10
50556;DHT22;36508;52.512;13.450;2023-03-01T13:35:58;22.90;31.90
50556;DHT22;36508;52.512;13.450;2023-03-01T13:38:54;22.90;31.20
50556;DHT22;36508;52.512;13.450;2023-03-01T13:47:14;21.00;31.80
50556;DHT22;36508;52.512;13.450;2023-03-01T13:49:53;21.00;32.50
50556;DHT22;36508;52.512;13.450;2023-03-01T13:52:50;21.10;32.60
50556;DHT22;36508;52.512;13.450;2023-03-01T13:55:30;20.90;32.90
50556;DHT22;36508;52.512;13.450;2023-03-01T13:58:13;20.70;33.10
50556;DHT22;36508;52.512;13.450;2023-03-01T14:00:40;20.00;33.10
50556;DHT22;36508;52.512;13.450;2023-03-01T14:03:16;19.50;33.50
50556;DHT22;36508;52.512;13.450;2023-03-01T14:06:00;19.30;33.60
50556;DHT22;36508;52.512;13.450;2023-03-01T14:08:29;18.80;33.20
50556;DHT22;36508;52.512;13.450;2023-03-01T14:11:37;19.00;34.60
50556;DHT22;36508;52.512;13.450;2023-03-01T14:14:30;20.50;33.60
50556;DHT22;36508;52.512;13.450;2023-03-01T14:19:30;23.40;31.50
50556;DHT22;36508;52.512;13.450;2023-03-01T14:22:19;21.80;31.80
50556;DHT22;36508;52.512;13.450;2023-03-01T14:24:57;20.10;32.70
50556;DHT22;36508;52.512;13.450;2023-03-01T14:27:27;19.50;33.50
50556;DHT22;36508;52.512;13.450;2023-03-01T14:32:25;20.40;34.40
50556;DHT22;36508;52.512;13.450;2023-03-01T14:34:52;22.60;34.10
50556;DHT22;36508;52.512;13.450;2023-03-01T14:37:20;22.80;33.80
50556;DHT22;36508;52.512;13.450;2023-03-01T14:39:47;22.90;34.70
50556;DHT22;36508;52.512;13.450;2023-03-01T14:42:13;23.40;34.10
50556;DHT22;36508;52.512;13.450;2023-03-01T14:44:42;22.80;34.00
50556;DHT22;36508;52.512;13.450;2023-03-01T14:47:20;22.70;34.70
50556;DHT22;36508;52.512;13.450;2023-03-01T14:49:54;23.40;34.70
50556;DHT22;36508;52.512;13.450;2023-03-01T14:52:25;23.90;34.20
50556;DHT22;36508;52.512;13.450;2023-03-01T14:54:55;24.30;34.40
50556;DHT22;36508;52.512;13.450;2023-03-01T14:57:23;24.20;34.30
50556;DHT22;36508;52.512;13.450;2023-03-01T14:59:52;23.80;34.00
50556;DHT22;36508;52.512;13.450;2023-03-01T15:02:25;23.10;34.00
50556;DHT22;36508;52.512;13.450;2023-03-01T15:04:56;22.10;34.40
50556;DHT22;36508;52.512;13.450;2023-03-01T15:07:29;20.10;35.60
50556;DHT22;36508;52.512;13.450;2023-03-01T15:09:58;18.40;37.80
50556;DHT22;36508;52.512;13.450;2023-03-01T15:12:36;16.70;38.90
50556;DHT22;36508;52.512;13.450;2023-03-01T15:15:21;15.00;40.30
50556;DHT22;36508;52.512;13.450;2023-03-01T15:17:54;14.00;42.10
50556;DHT22;36508;52.512;13.450;2023-03-01T15:20:25;13.10;43.70
50556;DHT22;36508;52.512;13.450;2023-03-01T15:22:52;12.80;44.40
50556;DHT22;36508;52.512;13.450;2023-03-01T15:25:19;12.40;44.50
50556;DHT22;36508;52.512;13.450;2023-03-01T15:27:47;12.30;45.00
50556;DHT22;36508;52.512;13.450;2023-03-01T15:32:45;11.90;46.20
50556;DHT22;36508;52.512;13.450;2023-03-01T15:35:40;11.80;46.90
50556;DHT22;36508;52.512;13.450;2023-03-01T15:41:21;11.20;48.40
50556;DHT22;36508;52.512;13.450;2023-03-01T15:43:48;11.20;48.70
50556;DHT22;36508;52.512;13.450;2023-03-01T15:48:52;11.00;48.20
50556;DHT22;36508;52.512;13.450;2023-03-01T15:51:26;10.80;48.30
50556;DHT22;36508;52.512;13.450;2023-03-01T15:53:53;10.70;49.20
50556;DHT22;36508;52.512;13.450;2023-03-01T15:56:19;10.60;48.90
50556;DHT22;36508;52.512;13.450;2023-03-01T15:58:45;10.30;49.60
50556;DHT22;36508;52.512;13.450;2023-03-01T16:01:15;10.10;49.90
50556;DHT22;36508;52.512;13.450;2023-03-01T16:03:43;10.00;49.80
50556;DHT22;36508;52.512;13.450;2023-03-01T16:06:10;10.00;50.50
50556;DHT22;36508;52.512;13.450;2023-03-01T16:08:37;9.90;52.20
50556;DHT22;36508;52.512;13.450;2023-03-01T16:11:05;10.00;51.60
50556;DHT22;36508;52.512;13.450;2023-03-01T16:13:34;9.90;52.50
50556;DHT22;36508;52.512;13.450;2023-03-01T16:16:01;9.70;53.00
50556;DHT22;36508;52.512;13.450;2023-03-01T16:18:27;9.70;53.60
50556;DHT22;36508;52.512;13.450;2023-03-01T16:20:53;9.70;53.70
50556;DHT22;36508;52.512;13.450;2023-03-01T16:23:21;9.50;54.00
50556;DHT22;36508;52.512;13.450;2023-03-01T16:25:50;9.40;54.10
50556;DHT22;36508;52.512;13.450;2023-03-01T16:28:17;9.30;54.50
50556;DHT22;36508;52.512;13.450;2023-03-01T16:30:46;9.30;54.50
50556;DHT22;36508;52.512;13.450;2023-03-01T16:33:16;9.20;54.60
50556;DHT22;36508;52.512;13.450;2023-03-01T16:35:42;9.20;55.10
50556;DHT22;36508;52.512;13.450;2023-03-01T16:38:10;9.20;55.40
50556;DHT22;36508;52.512;13.450;2023-03-01T16:40:36;9.10;55.40
50556;DHT22;36508;52.512;13.450;2023-03-01T16:43:02;9.00;55.70
50556;DHT22;36508;52.512;13.450;2023-03-01T16:45:33;9.00;56.00
50556;DHT22;36508;52.512;13.450;2023-03-01T16:48:00;8.90;56.50
50556;DHT22;36508;52.512;13.450;2023-03-01T16:50:26;8.80;56.80
50556;DHT22;36508;52.512;13.450;2023-03-01T16:52:53;8.90;57.30
50556;DHT22;36508;52.512;13.450;2023-03-01T16:55:22;8.80;57.40
50556;DHT22;36508;52.512;13.450;2023-03-01T16:57:49;8.70;57.50
50556;DHT22;36508;52.512;13.450;2023-03-01T17:00:18;8.60;58.00
50556;DHT22;36508;52.512;13.450;2023-03-01T17:02:45;8.60;58.30
50556;DHT22;36508;52.512;13.450;2023-03-01T17:05:13;8.50;58.60
50556;DHT22;36508;52.512;13.450;2023-03-01T17:07:43;8.40;58.80
50556;DHT22;36508;52.512;13.450;2023-03-01T17:10:10;8.30;59.20
50556;DHT22;36508;52.512;13.450;2023-03-01T17:12:36;8.30;59.70
50556;DHT22;36508;52.512;13.450;2023-03-01T17:15:03;8.20;60.00
50556;DHT22;36508;52.512;13.450;2023-03-01T17:17:29;8.20;60.80
50556;DHT22;36508;52.512;13.450;2023-03-01T17:19:55;8.20;61.10
50556;DHT22;36508;52.512;13.450;2023-03-01T17:22:21;8.20;61.90
50556;DHT22;36508;52.512;13.450;2023-03-01T17:24:54;8.10;62.20
50556;DHT22;36508;52.512;13.450;2023-03-01T17:27:20;8.00;62.70
50556;DHT22;36508;52.512;13.450;2023-03-01T17:29:49;7.90;63.30
50556;DHT22;36508;52.512;13.450;2023-03-01T17:32:16;7.90;63.80
50556;DHT22;36508;52.512;13.450;2023-03-01T17:34:42;7.80;64.40
50556;DHT22;36508;52.512;13.450;2023-03-01T17:37:07;7.80;65.20
50556;DHT22;36508;52.512;13.450;2023-03-01T17:39:33;7.80;65.80
50556;DHT22;36508;52.512;13.450;2023-03-01T17:42:02;7.80;66.20
50556;DHT22;36508;52.512;13.450;2023-03-01T17:44:29;7.70;66.70
50556;DHT22;36508;52.512;13.450;2023-03-01T17:46:55;7.80;67.30
50556;DHT22;36508;52.512;13.450;2023-03-01T17:49:21;7.70;67.60
50556;DHT22;36508;52.512;13.450;2023-03-01T17:51:47;7.50;68.30
50556;DHT22;36508;52.512;13.450;2023-03-01T17:54:22;7.40;69.20
50556;DHT22;36508;52.512;13.450;2023-03-01T17:56:48;7.40;70.10
50556;DHT22;36508;52.512;13.450;2023-03-01T17:59:18;7.40;70.70
50556;DHT22;36508;52.512;13.450;2023-03-01T18:01:44;7.30;71.60